Saint Louis, Missouri
Traffic Map
Current Weather Conditions
Saint Louis, Missouri
Clear
Clear
67°
Feels Like: 67°
Wind Chill: 67° Ceiling: Unl
Heat Index: 67° Visibility: 10mi
Dew Point: 55° Wind: 5mph
Humidity: 66% Direction: 240° (WSW)
Pressure: 30.08in Gusts: 0mph
Raw Report DataKCPS 241753Z 24004KT 10SM CLR 19/13 A3008 RMK AO2 SLP185 T01940128 10200 20083 58016
Traffic Incident Summary
Active as of:
Severity:
Category:
InformationThere was an issue retrieving the traffic information for this location. Please try a different location or try again shortly.
Advertisements
Track Severe Weather on mobile